Time;durP1;ratioP1;P1;durP2;ratioP2;P2;SDS_P1;SDS_P2;PMS_P1;PMS_P2;Temp;Humidity;BMP_temperature;BMP_pressure;BME280_temperature;BME280_humidity;BME280_pressure;Samples;Min_cycle;Max_cycle;Signal;HPM_P1;HPM_P2
2020/12/24 00:01:55;;;;;;;1.17;0.52;;;10.50;99.90;;;;;;5030172;28;20368;-68
2020/12/24 00:04:21;;;;;;;0.52;0.47;;;10.40;99.90;;;;;;5032990;28;20455;-68
2020/12/24 00:06:46;;;;;;;0.85;0.50;;;10.40;99.90;;;;;;5034120;28;20025;-68
2020/12/24 00:09:12;;;;;;;0.30;0.30;;;10.50;99.90;;;;;;5034439;28;20479;-68
2020/12/24 00:11:38;;;;;;;1.33;0.60;;;10.50;99.90;;;;;;5034247;28;20029;-70
2020/12/24 00:14:04;;;;;;;2.50;0.45;;;10.60;99.90;;;;;;5033191;28;20435;-68
2020/12/24 00:16:30;;;;;;;0.40;0.40;;;10.60;99.90;;;;;;5034057;28;20087;-68
2020/12/24 00:18:55;;;;;;;0.85;0.32;;;10.60;99.90;;;;;;5033143;28;20478;-68
2020/12/24 00:21:21;;;;;;;0.35;0.30;;;10.60;99.90;;;;;;5033038;28;20029;-68
2020/12/24 00:23:47;;;;;;;0.47;0.47;;;10.50;99.90;;;;;;5033596;28;20107;-68
2020/12/24 00:26:12;;;;;;;0.50;0.50;;;10.60;99.90;;;;;;5033883;28;20478;-69
2020/12/24 00:28:38;;;;;;;0.40;0.40;;;10.60;99.90;;;;;;5033545;28;20037;-68
2020/12/24 00:31:03;;;;;;;0.40;0.40;;;10.60;99.90;;;;;;5033817;28;20386;-68
2020/12/24 00:33:29;;;;;;;1.33;1.23;;;10.60;99.90;;;;;;5032043;28;20030;-68
2020/12/24 00:35:55;;;;;;;0.40;0.40;;;10.60;99.90;;;;;;5033899;28;20609;-68
2020/12/24 00:38:20;;;;;;;0.65;0.50;;;10.50;99.90;;;;;;5034031;28;20225;-68
2020/12/24 00:40:46;;;;;;;2.30;0.68;;;10.50;99.90;;;;;;5033923;28;20044;-68
2020/12/24 00:43:12;;;;;;;1.02;0.68;;;10.50;99.90;;;;;;5031374;28;20095;-68
2020/12/24 00:45:37;;;;;;;0.50;0.50;;;10.50;99.90;;;;;;5033675;28;20021;-68
2020/12/24 00:48:03;;;;;;;0.52;0.45;;;10.50;99.90;;;;;;5033633;28;20013;-68
2020/12/24 00:50:29;;;;;;;0.60;0.55;;;10.50;99.90;;;;;;5033743;28;20030;-68
2020/12/24 00:52:54;;;;;;;1.77;0.52;;;10.50;99.90;;;;;;5032852;28;20048;-68
2020/12/24 00:55:20;;;;;;;2.22;1.10;;;10.50;99.90;;;;;;5032676;28;20474;-68
2020/12/24 00:57:46;;;;;;;0.73;0.73;;;10.50;99.90;;;;;;5035277;28;20040;-67
2020/12/24 01:00:11;;;;;;;1.20;1.10;;;10.40;99.90;;;;;;5038432;28;20048;-67
2020/12/24 01:02:37;;;;;;;1.40;0.80;;;10.30;99.90;;;;;;5035983;28;20411;-68
2020/12/24 01:05:06;;;;;;;1.00;0.55;;;10.30;99.90;;;;;;5033668;28;20561;-68
2020/12/24 01:07:33;;;;;;;1.50;0.80;;;10.30;99.90;;;;;;5033245;28;20103;-68
2020/12/24 01:09:58;;;;;;;1.05;0.73;;;10.20;99.90;;;;;;5033236;28;20100;-67
2020/12/24 01:12:24;;;;;;;0.98;0.73;;;10.20;99.90;;;;;;5033010;28;20469;-68
2020/12/24 01:14:50;;;;;;;0.90;0.50;;;10.30;99.90;;;;;;5031091;28;20029;-68
2020/12/24 01:17:15;;;;;;;1.00;0.70;;;10.20;99.90;;;;;;5033126;28;20030;-68
2020/12/24 01:19:41;;;;;;;1.13;0.40;;;10.10;99.90;;;;;;5033157;28;20462;-67
2020/12/24 01:22:07;;;;;;;0.73;0.50;;;10.10;99.90;;;;;;5033053;28;20025;-67
2020/12/24 01:24:32;;;;;;;0.20;0.20;;;10.10;99.90;;;;;;5032315;28;20029;-68
2020/12/24 01:26:58;;;;;;;0.85;0.30;;;10.10;99.90;;;;;;5032326;28;20113;-70
2020/12/24 01:29:23;;;;;;;1.45;0.20;;;10.00;99.90;;;;;;5027440;28;20025;-69
2020/12/24 01:31:50;;;;;;;0.65;0.35;;;10.00;99.90;;;;;;5022991;28;20124;-69
2020/12/24 01:34:17;;;;;;;2.17;0.30;;;10.00;99.90;;;;;;5022467;28;20545;-69
2020/12/24 01:36:43;;;;;;;0.93;0.30;;;9.80;99.90;;;;;;5036867;28;20436;-69
2020/12/24 01:39:09;;;;;;;2.28;0.40;;;9.80;99.90;;;;;;5021083;28;20029;-70
2020/12/24 01:41:35;;;;;;;1.85;0.47;;;9.60;99.90;;;;;;5022769;28;20192;-70
2020/12/24 01:44:01;;;;;;;0.73;0.30;;;9.50;99.90;;;;;;5020773;28;20176;-70
2020/12/24 01:46:27;;;;;;;1.05;0.50;;;9.40;99.90;;;;;;5032742;28;20097;-70
2020/12/24 01:48:53;;;;;;;0.75;0.50;;;9.30;99.90;;;;;;5033416;28;20025;-69
2020/12/24 01:51:36;;;;;;;0.50;0.30;;;9.20;99.90;;;;;;5031837;28;20125;-70
2020/12/24 01:54:03;;;;;;;0.50;0.32;;;9.20;99.90;;;;;;5027371;28;20106;-70
2020/12/24 01:56:30;;;;;;;0.52;0.40;;;9.20;99.90;;;;;;5030285;28;20017;-70
2020/12/24 01:58:55;;;;;;;7.00;0.57;;;9.10;99.90;;;;;;5020900;28;20546;-69
2020/12/24 02:01:21;;;;;;;5.57;0.57;;;9.10;99.90;;;;;;5020579;28;20026;-69
2020/12/24 02:03:48;;;;;;;2.92;0.57;;;9.00;99.90;;;;;;5019829;28;20026;-69
2020/12/24 02:06:14;;;;;;;3.38;0.45;;;9.00;99.90;;;;;;5022770;28;20561;-69
2020/12/24 02:08:40;;;;;;;1.23;0.60;;;8.90;99.90;;;;;;5024283;28;20711;-70
2020/12/24 02:11:09;;;;;;;1.33;0.32;;;8.80;99.90;;;;;;5019512;28;20071;-70
2020/12/24 02:13:35;;;;;;;2.50;0.57;;;8.70;99.90;;;;;;5023839;28;20025;-70
2020/12/24 02:16:00;;;;;;;1.65;0.75;;;8.70;99.90;;;;;;5021672;28;20026;-70
2020/12/24 02:18:26;;;;;;;2.85;0.45;;;8.60;99.90;;;;;;5019264;28;20026;-70
2020/12/24 02:20:52;;;;;;;2.47;0.43;;;8.60;99.90;;;;;;5018789;28;20053;-70
2020/12/24 02:23:18;;;;;;;4.30;0.47;;;8.60;99.90;;;;;;5021121;28;20455;-70
2020/12/24 02:25:43;;;;;;;2.25;0.43;;;8.60;99.90;;;;;;5022193;28;20100;-71
2020/12/24 02:28:10;;;;;;;0.75;0.30;;;8.60;99.90;;;;;;5019666;28;20371;-70
2020/12/24 02:30:36;;;;;;;2.40;0.50;;;8.60;99.90;;;;;;5021859;28;20433;-70
2020/12/24 02:33:02;;;;;;;2.05;0.30;;;8.50;99.90;;;;;;5018424;28;20427;-72
2020/12/24 02:35:28;;;;;;;0.70;0.30;;;8.50;99.90;;;;;;5021167;28;20022;-72
2020/12/24 02:37:54;;;;;;;0.95;0.32;;;8.50;99.90;;;;;;5022115;28;20095;-71
2020/12/24 02:40:20;;;;;;;0.60;0.40;;;8.50;99.90;;;;;;5035635;28;20033;-71
2020/12/24 02:42:46;;;;;;;1.30;0.60;;;8.50;99.90;;;;;;5019520;28;20021;-72
2020/12/24 02:45:11;;;;;;;4.22;0.50;;;8.50;99.90;;;;;;5021124;28;20025;-71
2020/12/24 02:47:37;;;;;;;0.40;0.38;;;8.50;99.90;;;;;;5021596;28;20021;-70
2020/12/24 02:50:08;;;;;;;1.17;0.40;;;8.40;99.90;;;;;;5021599;28;20471;-72
2020/12/24 02:52:35;;;;;;;2.78;0.60;;;8.40;99.90;;;;;;5021509;28;20056;-72
2020/12/24 02:55:04;;;;;;;3.75;0.95;;;8.30;99.90;;;;;;5023867;28;20367;-68
2020/12/24 02:57:31;;;;;;;2.28;0.52;;;8.40;99.90;;;;;;5017334;28;20029;-68
2020/12/24 02:59:57;;;;;;;1.75;0.55;;;8.40;99.90;;;;;;5010419;28;20104;-69
2020/12/24 03:02:22;;;;;;;4.50;0.65;;;8.30;99.90;;;;;;5011739;28;20472;-69
2020/12/24 03:04:48;;;;;;;1.73;0.60;;;8.20;99.90;;;;;;5010830;28;20472;-68
2020/12/24 03:07:14;;;;;;;0.88;0.40;;;8.20;99.90;;;;;;5011370;28;20061;-69
2020/12/24 03:09:39;;;;;;;2.05;0.40;;;8.20;99.90;;;;;;5011553;28;20053;-68
2020/12/24 03:12:05;;;;;;;3.97;0.43;;;8.20;99.90;;;;;;5011655;28;20054;-69
2020/12/24 03:14:31;;;;;;;0.88;0.38;;;8.30;99.90;;;;;;5010820;28;20502;-69
2020/12/24 03:16:56;;;;;;;0.43;0.22;;;8.20;99.90;;;;;;5011125;28;20029;-68
2020/12/24 03:19:22;;;;;;;1.83;0.40;;;8.20;99.90;;;;;;5011262;28;20077;-69
2020/12/24 03:21:48;;;;;;;2.78;1.00;;;8.20;99.90;;;;;;5011108;28;20089;-69
2020/12/24 03:24:13;;;;;;;3.60;0.47;;;8.20;99.90;;;;;;5010617;28;20022;-68
2020/12/24 03:26:39;;;;;;;2.05;0.40;;;8.20;99.90;;;;;;5021873;28;20418;-68
2020/12/24 03:29:05;;;;;;;3.70;0.77;;;8.20;99.90;;;;;;5030617;28;20492;-69
2020/12/24 03:31:31;;;;;;;1.05;0.40;;;8.10;99.90;;;;;;5030906;28;20053;-69
2020/12/24 03:33:56;;;;;;;2.00;0.40;;;8.10;99.90;;;;;;5030035;28;20033;-69
2020/12/24 03:36:22;;;;;;;1.45;0.40;;;8.10;99.90;;;;;;5030872;28;20491;-69
2020/12/24 03:38:48;;;;;;;1.20;0.60;;;8.10;99.90;;;;;;5030197;28;20493;-69
2020/12/24 03:41:14;;;;;;;2.55;0.50;;;8.20;99.90;;;;;;5029755;28;20125;-69
2020/12/24 03:43:39;;;;;;;3.17;0.60;;;8.20;99.90;;;;;;5030057;28;20025;-68
2020/12/24 03:46:05;;;;;;;7.35;1.20;;;8.10;99.90;;;;;;5031280;28;20468;-68
2020/12/24 03:48:31;;;;;;;0.60;0.38;;;8.10;99.90;;;;;;5030073;28;20029;-69
2020/12/24 03:50:56;;;;;;;0.75;0.40;;;8.10;99.90;;;;;;5030620;28;20044;-69
2020/12/24 03:53:22;;;;;;;1.13;0.45;;;8.10;99.90;;;;;;5029848;28;20415;-69
2020/12/24 03:55:48;;;;;;;2.30;0.30;;;8.10;99.90;;;;;;5030332;28;20025;-69
2020/12/24 03:58:14;;;;;;;1.58;0.52;;;8.10;99.90;;;;;;5030052;28;20022;-69
2020/12/24 04:00:40;;;;;;;2.63;0.45;;;8.20;99.90;;;;;;5030585;28;20021;-69
2020/12/24 04:03:07;;;;;;;1.08;0.30;;;8.20;99.90;;;;;;5029598;28;20466;-69
2020/12/24 04:05:33;;;;;;;1.95;0.80;;;8.20;99.90;;;;;;5030340;28;20030;-69
2020/12/24 04:07:58;;;;;;;1.55;0.15;;;8.20;99.90;;;;;;5030341;28;20017;-69
2020/12/24 04:10:24;;;;;;;0.77;0.43;;;8.20;99.90;;;;;;5030344;28;20047;-69
2020/12/24 04:12:50;;;;;;;0.20;0.20;;;8.30;99.90;;;;;;5030038;28;20043;-69
2020/12/24 04:15:16;;;;;;;1.38;0.30;;;8.30;99.90;;;;;;5030868;28;20026;-68
2020/12/24 04:17:42;;;;;;;0.75;0.30;;;8.30;99.90;;;;;;5030247;28;20079;-69
2020/12/24 04:20:07;;;;;;;1.67;0.25;;;8.30;99.90;;;;;;5030334;28;20033;-69
2020/12/24 04:22:33;;;;;;;1.63;0.30;;;8.30;99.90;;;;;;5030061;28;20026;-68
2020/12/24 04:24:59;;;;;;;0.20;0.20;;;8.20;99.90;;;;;;5029660;28;20037;-69
2020/12/24 04:27:25;;;;;;;0.63;0.30;;;8.20;99.90;;;;;;5030038;28;20033;-69
2020/12/24 04:29:51;;;;;;;0.22;0.20;;;8.10;99.90;;;;;;5029887;28;20179;-69
2020/12/24 04:32:16;;;;;;;0.95;0.93;;;8.10;99.90;;;;;;5028702;28;20029;-68
2020/12/24 04:34:42;;;;;;;1.52;0.30;;;8.00;99.90;;;;;;5067794;23;20040;-71
2020/12/24 04:37:08;;;;;;;0.70;0.20;;;8.00;99.90;;;;;;5052828;28;20043;-71
2020/12/24 04:39:33;;;;;;;0.63;0.52;;;8.00;99.90;;;;;;5063077;28;20025;-71
2020/12/24 04:42:00;;;;;;;0.40;0.30;;;8.00;99.90;;;;;;5055690;28;20021;-70
2020/12/24 04:44:26;;;;;;;0.28;0.20;;;7.90;99.90;;;;;;5038753;28;20027;-71
2020/12/24 04:46:55;;;;;;;0.25;0.25;;;7.90;99.90;;;;;;5030102;28;20022;-71
2020/12/24 04:49:23;;;;;;;2.17;0.85;;;7.90;99.90;;;;;;5032438;28;20021;-71
2020/12/24 04:51:49;;;;;;;2.00;0.30;;;7.90;99.90;;;;;;5034950;28;20373;-70
2020/12/24 04:54:16;;;;;;;3.63;0.40;;;7.80;99.90;;;;;;5034213;28;20038;-71
2020/12/24 04:56:41;;;;;;;1.70;0.28;;;7.70;99.90;;;;;;5034595;28;20495;-71
2020/12/24 04:59:07;;;;;;;3.72;0.50;;;7.80;99.90;;;;;;5040231;28;20092;-71
2020/12/24 05:01:33;;;;;;;2.15;0.50;;;7.70;99.90;;;;;;5053410;28;20017;-71
2020/12/24 05:03:59;;;;;;;4.85;0.70;;;7.60;99.90;;;;;;5053987;28;20024;-71
2020/12/24 05:06:25;;;;;;;2.13;0.60;;;7.60;99.90;;;;;;5054530;28;20032;-70
2020/12/24 05:08:55;;;;;;;0.65;0.52;;;7.60;99.90;;;;;;5054595;28;20017;-71
2020/12/24 05:11:44;;;;;;;1.92;0.57;;;7.50;99.90;;;;;;5054632;28;20079;-70
2020/12/24 05:14:17;;;;;;;2.78;0.50;;;7.40;99.90;;;;;;5054006;28;20044;-71
2020/12/24 05:16:55;;;;;;;1.45;0.45;;;7.60;99.90;;;;;;5053203;28;20025;-71
2020/12/24 05:19:21;;;;;;;1.33;0.70;;;7.60;99.90;;;;;;5054331;28;20463;-72
2020/12/24 05:21:46;;;;;;;2.58;0.82;;;7.70;99.90;;;;;;5054495;28;20033;-71
2020/12/24 05:24:33;;;;;;;3.50;1.00;;;7.70;99.90;;;;;;5053887;28;20021;-71
2020/12/24 05:27:10;;;;;;;2.33;0.43;;;7.70;99.90;;;;;;5054215;28;20028;-70
2020/12/24 05:29:37;;;;;;;4.18;0.70;;;7.70;99.90;;;;;;5054308;28;20029;-71
2020/12/24 05:32:04;;;;;;;1.73;0.57;;;7.70;99.90;;;;;;5054168;28;20021;-70
2020/12/24 05:34:30;;;;;;;4.53;0.70;;;7.60;99.90;;;;;;5053547;28;20029;-71
2020/12/24 05:37:15;;;;;;;5.88;0.73;;;7.60;99.90;;;;;;5053971;28;20104;-72
2020/12/24 05:39:46;;;;;;;3.13;0.90;;;7.50;99.90;;;;;;5052824;28;20024;-71
2020/12/24 05:42:13;;;;;;;5.20;1.70;;;7.50;99.90;;;;;;5054031;28;20032;-71
2020/12/24 05:44:40;;;;;;;6.68;1.63;;;7.50;99.90;;;;;;5053553;28;20855;-71
2020/12/24 05:47:07;;;;;;;5.13;2.33;;;7.50;99.90;;;;;;5053763;28;20036;-71
2020/12/24 05:49:34;;;;;;;5.40;1.80;;;7.30;99.90;;;;;;5053162;28;20021;-71
2020/12/24 05:52:05;;;;;;;3.75;1.40;;;7.30;99.90;;;;;;5053978;28;20392;-71
2020/12/24 05:54:32;;;;;;;5.78;1.17;;;7.30;99.90;;;;;;5053486;28;20545;-68
2020/12/24 05:57:00;;;;;;;3.30;0.95;;;7.30;99.90;;;;;;5053532;28;20041;-69
2020/12/24 05:59:30;;;;;;;3.83;1.00;;;7.30;99.90;;;;;;5053483;28;20394;-69
2020/12/24 06:02:05;;;;;;;4.53;0.77;;;7.40;99.90;;;;;;5053017;28;20479;-69
2020/12/24 06:04:35;;;;;;;4.22;1.23;;;7.50;99.90;;;;;;5051734;28;20021;-69
2020/12/24 06:07:08;;;;;;;2.63;0.90;;;7.60;99.90;;;;;;5053535;28;20031;-70
2020/12/24 06:09:39;;;;;;;3.80;1.00;;;7.60;99.90;;;;;;5053206;28;20020;-71
2020/12/24 06:12:17;;;;;;;1.80;0.65;;;7.70;99.90;;;;;;5052194;28;20024;-68
2020/12/24 06:14:47;;;;;;;2.35;1.05;;;7.80;99.90;;;;;;5051812;28;20079;-71
2020/12/24 06:17:14;;;;;;;3.95;0.98;;;7.80;99.90;;;;;;5053650;28;20025;-70
2020/12/24 06:19:41;;;;;;;2.75;0.90;;;7.80;99.90;;;;;;5053362;28;20037;-70
2020/12/24 06:22:07;;;;;;;4.32;0.95;;;7.70;99.90;;;;;;5053676;28;20079;-70
2020/12/24 06:24:37;;;;;;;3.75;0.68;;;7.60;99.90;;;;;;5052817;28;20017;-70
2020/12/24 06:27:09;;;;;;;2.30;0.90;;;7.70;99.90;;;;;;5053663;28;20098;-69
2020/12/24 06:29:38;;;;;;;3.03;0.60;;;7.70;99.90;;;;;;5060534;28;20447;-70
2020/12/24 06:32:07;;;;;;;2.97;0.73;;;7.70;99.90;;;;;;5063769;28;20031;-70
2020/12/24 06:34:37;;;;;;;2.60;0.63;;;7.70;99.90;;;;;;5053449;28;20037;-70
2020/12/24 06:37:22;;;;;;;2.38;0.90;;;7.80;99.90;;;;;;5053073;28;20032;-70
2020/12/24 06:39:51;;;;;;;3.45;0.70;;;7.80;99.90;;;;;;5053110;28;20469;-71
2020/12/24 06:42:35;;;;;;;6.88;0.80;;;7.70;99.90;;;;;;5051879;28;20483;-69
2020/12/24 06:45:03;;;;;;;2.08;0.77;;;7.60;99.90;;;;;;5050836;28;20063;-70
2020/12/24 06:47:29;;;;;;;2.45;0.75;;;7.50;99.90;;;;;;5051500;28;20025;-69
2020/12/24 06:49:55;;;;;;;7.05;0.60;;;7.50;99.90;;;;;;5052680;28;20126;-69
2020/12/24 06:52:32;;;;;;;3.78;1.00;;;7.50;99.90;;;;;;5052812;28;20028;-71
2020/12/24 06:55:17;;;;;;;6.15;0.90;;;7.50;99.90;;;;;;5052303;28;20053;-70
2020/12/24 06:57:44;;;;;;;3.80;0.70;;;7.50;99.90;;;;;;5051502;28;20029;-70
2020/12/24 07:00:18;;;;;;;1.95;0.82;;;7.50;99.90;;;;;;5052647;28;20510;-70
2020/12/24 07:02:48;;;;;;;5.38;0.90;;;7.40;99.90;;;;;;5051939;28;20074;-70
2020/12/24 07:05:45;;;;;;;3.30;0.90;;;7.50;99.90;;;;;;5052326;28;20021;-70
2020/12/24 07:08:31;;;;;;;9.05;1.55;;;7.40;99.90;;;;;;5052648;28;20025;-70
2020/12/24 07:10:58;;;;;;;3.65;0.90;;;7.50;99.90;;;;;;5032445;28;20475;-70
2020/12/24 07:13:38;;;;;;;3.78;0.95;;;7.60;99.90;;;;;;5031002;28;20033;-71
2020/12/24 07:16:06;;;;;;;4.38;0.88;;;7.70;99.90;;;;;;5032588;28;20056;-70
2020/12/24 07:18:34;;;;;;;4.97;1.42;;;7.80;99.90;;;;;;5032998;28;20511;-70
2020/12/24 07:21:02;;;;;;;3.60;0.65;;;7.80;99.90;;;;;;5032403;28;20116;-70
2020/12/24 07:23:30;;;;;;;4.25;1.25;;;8.00;99.90;;;;;;5032067;28;20374;-71
2020/12/24 07:25:58;;;;;;;4.88;1.30;;;7.90;99.90;;;;;;5032334;28;20586;-70
2020/12/24 07:28:28;;;;;;;2.72;1.00;;;8.10;99.90;;;;;;5032270;28;20057;-70
2020/12/24 07:30:59;;;;;;;6.28;0.98;;;8.00;99.90;;;;;;5032390;28;20372;-70
2020/12/24 07:33:25;;;;;;;3.45;0.88;;;8.00;99.90;;;;;;5031879;28;20041;-70
2020/12/24 07:35:52;;;;;;;5.00;1.45;;;8.10;99.90;;;;;;5032143;28;20137;-70
2020/12/24 07:38:30;;;;;;;7.60;0.90;;;8.10;99.90;;;;;;5032549;28;20439;-71
2020/12/24 07:40:56;;;;;;;3.53;0.80;;;8.20;99.90;;;;;;5036715;28;20112;-74
2020/12/24 07:43:24;;;;;;;4.75;1.02;;;8.10;99.90;;;;;;5041138;28;20012;-75
2020/12/24 07:45:50;;;;;;;9.45;1.67;;;8.10;99.90;;;;;;5040891;28;20033;-73
2020/12/24 07:48:21;;;;;;;4.05;1.20;;;8.20;99.90;;;;;;5039830;28;20021;-73
2020/12/24 07:50:49;;;;;;;3.47;0.82;;;8.30;99.90;;;;;;5040681;28;20009;-74
2020/12/24 07:53:26;;;;;;;6.80;1.33;;;8.30;99.90;;;;;;5041145;28;20061;-73
2020/12/24 07:55:52;;;;;;;4.50;1.08;;;8.30;99.90;;;;;;5034164;28;20414;-68
2020/12/24 07:58:19;;;;;;;7.32;1.30;;;8.40;99.90;;;;;;5028380;28;20025;-71
2020/12/24 08:00:47;;;;;;;4.85;1.30;;;8.40;99.90;;;;;;5042606;28;20075;-70
2020/12/24 08:03:17;;;;;;;4.10;1.00;;;8.50;99.90;;;;;;5033178;28;20049;-70
2020/12/24 08:05:47;;;;;;;6.97;1.98;;;8.60;99.90;;;;;;5044358;28;20063;-71
2020/12/24 08:08:20;;;;;;;2.88;0.88;;;8.60;99.90;;;;;;5051785;28;20415;-71
2020/12/24 08:10:45;;;;;;;7.93;1.75;;;8.70;99.90;;;;;;5050842;28;20033;-69
2020/12/24 08:13:11;;;;;;;2.88;0.98;;;8.70;99.90;;;;;;5050446;28;20017;-70
2020/12/24 08:15:42;;;;;;;9.02;1.30;;;8.70;99.90;;;;;;5050117;28;20025;-69
2020/12/24 08:18:11;;;;;;;7.20;3.13;;;8.80;99.90;;;;;;5033209;28;20437;-68
2020/12/24 08:20:48;;;;;;;2.90;0.95;;;8.90;99.90;;;;;;5030682;28;20060;-68
2020/12/24 08:23:39;;;;;;;5.72;1.15;;;8.80;99.90;;;;;;5030556;28;20029;-68
2020/12/24 08:26:06;;;;;;;7.75;0.95;;;8.80;99.90;;;;;;5035426;28;20029;-68
2020/12/24 08:28:33;;;;;;;2.15;0.60;;;8.70;99.90;;;;;;5035410;28;20021;-68
2020/12/24 08:31:00;;;;;;;4.25;0.65;;;8.80;99.90;;;;;;5034659;28;20017;-68
2020/12/24 08:33:26;;;;;;;4.05;0.88;;;8.70;99.90;;;;;;5034205;28;20463;-71
2020/12/24 08:35:52;;;;;;;2.38;0.60;;;8.80;99.90;;;;;;5034440;28;20109;-69
2020/12/24 08:38:19;;;;;;;3.33;0.82;;;9.80;99.90;;;;;;5036341;28;20475;-70
2020/12/24 08:40:45;;;;;;;2.83;0.63;;;10.30;99.90;;;;;;5054266;28;20025;-68
2020/12/24 08:43:12;;;;;;;4.32;0.88;;;10.10;99.90;;;;;;5052824;28;20017;-68
2020/12/24 08:45:43;;;;;;;5.00;1.10;;;9.30;99.90;;;;;;5050157;28;20044;-67
2020/12/24 08:48:10;;;;;;;4.50;0.80;;;9.00;99.90;;;;;;5045533;28;20690;-67
2020/12/24 08:50:38;;;;;;;3.45;0.90;;;8.70;99.90;;;;;;5044555;28;20163;-67
2020/12/24 08:53:05;;;;;;;3.15;0.70;;;8.50;99.90;;;;;;5049046;28;20017;-68
2020/12/24 08:55:31;;;;;;;4.55;0.85;;;8.30;99.90;;;;;;5033230;28;20029;-67
2020/12/24 08:57:57;;;;;;;3.42;0.77;;;8.20;99.90;;;;;;5034431;28;20026;-67
2020/12/24 09:00:24;;;;;;;1.52;0.60;;;8.10;99.90;;;;;;5034069;28;20361;-69
2020/12/24 09:02:50;;;;;;;4.38;0.88;;;8.10;99.90;;;;;;5036971;28;20021;-68
2020/12/24 09:05:22;;;;;;;3.50;0.75;;;8.00;99.90;;;;;;5035476;28;20040;-68
2020/12/24 09:07:48;;;;;;;3.80;1.00;;;8.10;99.90;;;;;;5038766;28;20013;-69
2020/12/24 09:10:23;;;;;;;3.08;0.70;;;8.10;99.90;;;;;;5053159;28;20032;-69
2020/12/24 09:12:56;;;;;;;1.85;0.60;;;8.10;99.90;;;;;;5053888;28;20498;-69
2020/12/24 09:15:26;;;;;;;2.83;0.73;;;8.30;99.90;;;;;;5054056;28;21572;-70
2020/12/24 09:17:53;;;;;;;1.30;0.60;;;8.30;99.90;;;;;;5048968;28;20029;-70
2020/12/24 09:20:27;;;;;;;1.67;0.75;;;8.50;99.90;;;;;;5033251;28;20112;-70
2020/12/24 09:22:55;;;;;;;1.88;0.50;;;8.40;99.90;;;;;;5032867;28;20438;-70
2020/12/24 09:25:42;;;;;;;2.33;0.65;;;8.40;99.90;;;;;;5034423;28;20018;-69
2020/12/24 09:28:24;;;;;;;5.30;0.70;;;8.40;99.90;;;;;;5033915;28;20036;-69
2020/12/24 09:30:52;;;;;;;2.22;0.85;;;8.60;99.90;;;;;;5033292;28;20037;-68
2020/12/24 09:33:18;;;;;;;2.33;0.43;;;8.90;99.90;;;;;;5031589;28;20414;-69
2020/12/24 09:35:44;;;;;;;1.35;0.73;;;9.20;99.90;;;;;;5032863;28;20029;-72
2020/12/24 09:38:09;;;;;;;2.17;0.70;;;9.50;99.90;;;;;;5033619;28;20033;-69
2020/12/24 09:40:35;;;;;;;2.13;0.60;;;9.70;99.90;;;;;;5053106;28;20033;-69
2020/12/24 09:43:01;;;;;;;3.25;0.60;;;9.90;99.90;;;;;;5051437;28;20364;-68
2020/12/24 09:45:28;;;;;;;0.77;0.40;;;10.70;99.90;;;;;;5053712;28;20024;-68
2020/12/24 09:47:55;;;;;;;1.85;0.50;;;10.70;99.90;;;;;;5053360;28;20103;-67
2020/12/24 09:50:21;;;;;;;3.15;0.73;;;11.10;99.90;;;;;;5052108;28;20029;-68
2020/12/24 09:52:47;;;;;;;1.40;0.70;;;11.80;99.90;;;;;;5052837;28;20067;-67
2020/12/24 09:55:14;;;;;;;2.45;0.60;;;12.00;99.90;;;;;;5053086;28;20478;-68
2020/12/24 09:57:39;;;;;;;1.27;0.65;;;11.20;99.90;;;;;;5053406;28;20032;-69
2020/12/24 10:00:07;;;;;;;0.93;0.50;;;10.50;99.90;;;;;;5057606;28;20523;-69
2020/12/24 10:02:33;;;;;;;2.53;0.70;;;9.90;99.90;;;;;;5053627;28;20506;-70
2020/12/24 10:04:58;;;;;;;1.33;0.60;;;9.50;99.90;;;;;;5052934;28;20025;-71
2020/12/24 10:07:24;;;;;;;2.40;0.60;;;9.10;99.90;;;;;;5053336;28;20486;-69
2020/12/24 10:09:50;;;;;;;1.23;0.35;;;9.00;99.90;;;;;;5048905;28;20029;-69
2020/12/24 10:12:26;;;;;;;6.43;0.88;;;8.90;99.90;;;;;;5052096;28;20430;-69
2020/12/24 10:14:53;;;;;;;2.40;0.50;;;8.80;99.90;;;;;;5048588;28;20098;-72
2020/12/24 10:17:20;;;;;;;1.05;0.55;;;8.70;99.90;;;;;;5036058;28;20033;-73
2020/12/24 10:19:46;;;;;;;1.23;0.40;;;8.70;99.90;;;;;;5053575;28;20033;-74
2020/12/24 10:22:13;;;;;;;1.15;0.52;;;8.50;99.90;;;;;;5053640;28;20017;-72
2020/12/24 10:24:40;;;;;;;3.58;0.63;;;8.40;99.90;;;;;;5052932;28;20021;-72
2020/12/24 10:27:10;;;;;;;1.38;0.50;;;8.50;99.90;;;;;;5054322;28;20108;-75
2020/12/24 10:29:35;;;;;;;1.15;0.50;;;8.50;99.90;;;;;;5053987;28;20419;-72
2020/12/24 10:32:01;;;;;;;2.70;0.50;;;8.50;99.90;;;;;;5052365;28;20029;-72
2020/12/24 10:34:27;;;;;;;2.22;0.80;;;8.70;99.90;;;;;;5052779;28;20082;-71
2020/12/24 10:36:54;;;;;;;1.58;0.45;;;8.60;99.90;;;;;;5053658;28;20360;-73
2020/12/24 10:39:20;;;;;;;2.65;0.60;;;8.80;99.90;;;;;;5048033;28;20025;-69
2020/12/24 10:41:50;;;;;;;1.20;0.50;;;8.90;99.90;;;;;;5037112;28;20030;-66
2020/12/24 10:44:16;;;;;;;3.38;0.80;;;8.80;99.90;;;;;;5036739;28;20396;-69
2020/12/24 10:46:42;;;;;;;0.90;0.50;;;8.70;99.90;;;;;;5040928;28;20100;-70
2020/12/24 10:49:07;;;;;;;2.28;0.60;;;8.80;99.90;;;;;;5063501;28;20029;-69
2020/12/24 10:51:33;;;;;;;1.33;0.60;;;8.80;99.90;;;;;;5067753;28;20024;-70
2020/12/24 10:54:03;;;;;;;3.53;0.80;;;8.80;99.90;;;;;;5068491;28;20021;-67
2020/12/24 10:56:29;;;;;;;1.73;0.60;;;8.80;99.90;;;;;;5063073;28;20021;-67
2020/12/24 10:58:54;;;;;;;2.53;0.60;;;8.70;99.90;;;;;;5070043;28;20032;-70
2020/12/24 11:01:20;;;;;;;2.40;0.60;;;8.70;99.90;;;;;;5067303;28;20221;-67
2020/12/24 11:03:47;;;;;;;2.50;0.50;;;8.70;99.90;;;;;;5068350;28;20045;-68
2020/12/24 11:06:18;;;;;;;4.10;0.50;;;8.80;99.90;;;;;;5070861;28;20120;-67
2020/12/24 11:08:43;;;;;;;2.63;0.50;;;8.80;99.90;;;;;;5067084;28;20036;-68
2020/12/24 11:11:09;;;;;;;1.25;0.50;;;8.70;99.90;;;;;;5065581;28;20040;-68
2020/12/24 11:13:35;;;;;;;2.97;0.55;;;8.70;99.90;;;;;;5064645;28;20017;-69
2020/12/24 11:16:00;;;;;;;2.28;1.00;;;8.70;99.90;;;;;;5064891;28;20029;-68
2020/12/24 11:18:26;;;;;;;1.95;0.60;;;8.80;99.90;;;;;;5060945;28;20024;-69
2020/12/24 11:20:54;;;;;;;7.30;2.92;;;8.80;99.90;;;;;;5063459;28;20025;-69
2020/12/24 11:23:20;;;;;;;3.75;0.50;;;8.90;99.90;;;;;;5065567;28;20045;-69
2020/12/24 11:25:46;;;;;;;2.90;0.60;;;8.90;99.90;;;;;;5066898;28;20028;-68
2020/12/24 11:28:11;;;;;;;1.42;0.47;;;8.90;99.90;;;;;;5065092;28;20024;-68
2020/12/24 11:30:37;;;;;;;2.53;1.23;;;8.90;99.90;;;;;;5065138;28;20047;-68
2020/12/24 11:33:03;;;;;;;2.35;1.05;;;8.90;99.90;;;;;;5062647;28;20025;-68
2020/12/24 11:35:29;;;;;;;7.63;3.00;;;9.00;99.90;;;;;;5061584;28;20029;-69
2020/12/24 11:37:54;;;;;;;3.20;2.00;;;9.00;99.90;;;;;;5061377;28;20033;-69
2020/12/24 11:40:20;;;;;;;3.15;1.58;;;9.10;99.90;;;;;;5046093;28;20029;-69
2020/12/24 11:42:46;;;;;;;0.85;0.50;;;9.20;99.90;;;;;;5043428;28;20044;-70
2020/12/24 11:45:12;;;;;;;1.52;0.50;;;9.30;99.90;;;;;;5041002;28;20018;-70
2020/12/24 11:47:37;;;;;;;1.52;0.75;;;9.30;99.90;;;;;;5045276;28;20029;-69
2020/12/24 11:50:04;;;;;;;0.70;0.43;;;9.40;99.90;;;;;;5073691;28;20025;-69
2020/12/24 11:52:30;;;;;;;2.05;0.52;;;9.50;99.90;;;;;;5065796;28;20057;-70
2020/12/24 11:54:55;;;;;;;0.93;0.47;;;9.40;99.90;;;;;;5056548;28;20036;-68
2020/12/24 11:57:21;;;;;;;2.22;0.65;;;9.30;99.90;;;;;;5061378;28;20028;-68
2020/12/24 11:59:47;;;;;;;3.30;0.60;;;9.60;99.90;;;;;;5056726;28;20079;-67
2020/12/24 12:02:12;;;;;;;3.83;0.90;;;9.60;99.90;;;;;;5060156;28;20112;-67
2020/12/24 12:04:38;;;;;;;2.25;0.93;;;9.80;99.90;;;;;;5062920;28;20025;-69
2020/12/24 12:07:04;;;;;;;0.70;0.50;;;9.80;99.90;;;;;;5060958;28;20096;-69
2020/12/24 12:09:29;;;;;;;1.98;0.70;;;10.20;99.90;;;;;;5050510;28;20052;-68
2020/12/24 12:11:55;;;;;;;3.25;0.55;;;10.50;99.90;;;;;;5044309;28;20033;-69
2020/12/24 12:14:20;;;;;;;2.00;0.50;;;10.30;99.90;;;;;;5043759;28;20025;-71
2020/12/24 12:16:49;;;;;;;0.85;0.52;;;10.70;99.90;;;;;;5032824;28;20036;-69
2020/12/24 12:19:15;;;;;;;2.63;0.88;;;11.00;99.90;;;;;;5055029;28;20021;-69
2020/12/24 12:21:40;;;;;;;1.45;0.60;;;11.20;99.90;;;;;;5070240;28;20044;-68
2020/12/24 12:24:06;;;;;;;2.00;0.63;;;11.10;99.90;;;;;;5073412;28;20060;-66
2020/12/24 12:26:32;;;;;;;1.90;0.60;;;11.10;99.90;;;;;;5074233;28;20049;-66
2020/12/24 12:28:57;;;;;;;2.40;0.52;;;10.80;99.90;;;;;;5072147;28;20044;-73
2020/12/24 12:31:24;;;;;;;2.17;0.50;;;10.40;99.90;;;;;;5057993;28;20664;-72
2020/12/24 12:33:52;;;;;;;0.80;0.60;;;10.30;99.90;;;;;;5058766;28;20161;-70
2020/12/24 12:36:18;;;;;;;1.10;0.40;;;10.20;99.90;;;;;;5066422;28;20044;-71
2020/12/24 12:38:46;;;;;;;0.45;0.30;;;10.30;99.90;;;;;;5067071;28;20048;-71
2020/12/24 12:41:15;;;;;;;2.35;0.70;;;10.30;99.90;;;;;;5069049;28;20025;-73
2020/12/24 12:43:42;;;;;;;1.17;0.60;;;10.10;99.90;;;;;;5070200;28;20084;-74
2020/12/24 12:46:08;;;;;;;0.63;0.50;;;9.90;99.90;;;;;;5071098;28;20139;-70
2020/12/24 12:48:35;;;;;;;0.63;0.50;;;9.90;99.90;;;;;;5061829;28;20025;-70
2020/12/24 12:51:01;;;;;;;1.15;0.60;;;9.80;99.90;;;;;;5058047;28;20056;-70
2020/12/24 12:53:28;;;;;;;0.60;0.50;;;9.70;99.90;;;;;;5047840;28;20024;-72
2020/12/24 12:55:54;;;;;;;3.13;0.80;;;9.70;99.90;;;;;;5043011;28;20101;-67
2020/12/24 12:58:19;;;;;;;3.03;0.40;;;9.50;99.90;;;;;;5043899;28;20069;-69